createdAt,value
2023-02-18T00:01:43.781Z,8.80
2023-02-18T00:04:12.053Z,8.70
2023-02-18T00:06:40.658Z,8.60
2023-02-18T00:09:09.386Z,8.60
2023-02-18T00:11:39.959Z,8.50
2023-02-18T00:14:13.199Z,8.50
2023-02-18T00:16:41.577Z,8.50
2023-02-18T00:19:13.836Z,8.50
2023-02-18T00:21:42.333Z,8.50
2023-02-18T00:24:11.039Z,8.40
2023-02-18T00:26:39.540Z,8.30
2023-02-18T00:29:09.138Z,8.30
2023-02-18T00:31:40.468Z,8.20
2023-02-18T00:34:08.746Z,8.20
2023-02-18T00:36:37.492Z,8.10
2023-02-18T00:39:08.330Z,8.10
2023-02-18T00:41:37.545Z,8.10
2023-02-18T00:44:06.808Z,8.10
2023-02-18T00:46:37.063Z,8.10
2023-02-18T00:49:06.514Z,8.00
2023-02-18T00:51:37.019Z,7.90
2023-02-18T00:54:05.363Z,7.90
2023-02-18T00:56:33.716Z,7.90
2023-02-18T00:59:02.117Z,7.90
2023-02-18T01:01:30.509Z,8.00
2023-02-18T01:04:00.167Z,8.00
2023-02-18T01:06:28.700Z,8.00
2023-02-18T01:08:57.541Z,8.00
2023-02-18T01:11:26.034Z,8.00
2023-02-18T01:13:54.860Z,8.00
2023-02-18T01:16:24.237Z,8.00
2023-02-18T01:18:52.609Z,8.00
2023-02-18T01:21:22.344Z,8.00
2023-02-18T01:23:50.733Z,8.10
2023-02-18T01:26:19.476Z,8.10
2023-02-18T01:28:47.710Z,8.00
2023-02-18T01:31:16.920Z,8.10
2023-02-18T01:33:45.737Z,8.10
2023-02-18T01:36:14.099Z,8.10
2023-02-18T01:38:44.016Z,8.10
2023-02-18T01:41:12.371Z,8.10
2023-02-18T01:43:41.421Z,8.10
2023-02-18T01:46:21.938Z,8.10
2023-02-18T01:48:55.414Z,8.10
2023-02-18T01:51:26.691Z,8.10
2023-02-18T01:54:01.003Z,8.20
2023-02-18T01:56:33.121Z,8.20
2023-02-18T01:59:04.250Z,8.20
2023-02-18T02:01:34.390Z,8.20
2023-02-18T02:04:03.184Z,8.20
2023-02-18T02:06:31.364Z,8.20
2023-02-18T02:09:03.535Z,8.20
2023-02-18T02:12:07.870Z,8.30
2023-02-18T02:14:55.603Z,8.30
2023-02-18T02:17:31.857Z,8.30
2023-02-18T02:20:44.755Z,8.30
2023-02-18T02:23:40.786Z,8.30
2023-02-18T02:26:46.250Z,8.30
2023-02-18T02:29:40.986Z,8.30
2023-02-18T02:32:26.873Z,8.30
2023-02-18T02:35:03.192Z,8.30
2023-02-18T02:37:41.665Z,8.30
2023-02-18T02:40:21.695Z,8.40
2023-02-18T02:43:03.308Z,8.40
2023-02-18T02:45:43.486Z,8.40
2023-02-18T02:48:18.495Z,8.50
2023-02-18T02:50:55.891Z,8.50
2023-02-18T02:53:28.033Z,8.60
2023-02-18T02:55:56.381Z,8.60
2023-02-18T02:58:26.118Z,8.70
2023-02-18T03:01:30.836Z,8.70
2023-02-18T03:04:36.624Z,8.70
2023-02-18T03:07:20.662Z,8.70
2023-02-18T03:10:11.401Z,8.70
2023-02-18T03:12:48.375Z,8.70
2023-02-18T03:15:23.820Z,8.70
2023-02-18T03:17:56.244Z,8.70
2023-02-18T03:20:28.336Z,8.70
2023-02-18T03:23:04.224Z,8.70
2023-02-18T03:25:34.810Z,8.80
2023-02-18T03:28:08.110Z,8.80
2023-02-18T03:30:41.730Z,8.80
2023-02-18T03:33:15.427Z,8.80
2023-02-18T03:35:45.760Z,8.80
2023-02-18T03:38:19.446Z,8.80
2023-02-18T03:40:48.064Z,8.70
2023-02-18T03:43:16.691Z,8.80
2023-02-18T03:45:45.395Z,8.70
2023-02-18T03:48:13.690Z,8.70
2023-02-18T03:51:06.920Z,8.70
2023-02-18T03:53:36.790Z,8.70
2023-02-18T03:56:05.544Z,8.70
2023-02-18T03:58:34.097Z,8.70
2023-02-18T04:01:02.445Z,8.60
2023-02-18T04:03:30.945Z,8.60
2023-02-18T04:05:59.268Z,8.70
2023-02-18T04:08:27.909Z,8.60
2023-02-18T04:10:57.478Z,8.60
2023-02-18T04:13:26.069Z,8.60
2023-02-18T04:15:54.297Z,8.60
2023-02-18T04:18:22.553Z,8.60
2023-02-18T04:20:51.091Z,8.50
2023-02-18T04:23:19.311Z,8.50
2023-02-18T04:25:47.527Z,8.50
2023-02-18T04:28:18.415Z,8.50
2023-02-18T04:30:49.063Z,8.50
2023-02-18T04:33:17.824Z,8.50
2023-02-18T04:35:46.033Z,8.50
2023-02-18T04:38:15.008Z,8.50
2023-02-18T04:40:43.218Z,8.50
2023-02-18T04:43:11.568Z,8.50
2023-02-18T04:45:41.428Z,8.50
2023-02-18T04:48:10.223Z,8.50
2023-02-18T04:50:38.610Z,8.50
2023-02-18T04:53:07.269Z,8.40
2023-02-18T04:55:35.753Z,8.30
2023-02-18T04:58:03.989Z,8.30
2023-02-18T05:00:32.198Z,8.30
2023-02-18T05:03:02.178Z,8.20
2023-02-18T05:05:30.289Z,8.20
2023-02-18T05:07:58.790Z,8.20
2023-02-18T05:10:26.955Z,8.20
2023-02-18T05:12:55.606Z,8.30
2023-02-18T05:15:23.795Z,8.30
2023-02-18T05:17:51.959Z,8.30
2023-02-18T05:20:21.888Z,8.30
2023-02-18T05:22:50.337Z,8.40
2023-02-18T05:25:19.020Z,8.40
2023-02-18T05:27:47.541Z,8.40
2023-02-18T05:30:16.119Z,8.40
2023-02-18T05:32:44.373Z,8.50
2023-02-18T05:35:13.705Z,8.50
2023-02-18T05:37:43.669Z,8.50
2023-02-18T05:40:12.941Z,8.50
2023-02-18T05:42:41.114Z,8.50
2023-02-18T05:45:10.526Z,8.50
2023-02-18T05:47:38.740Z,8.40
2023-02-18T05:50:08.635Z,8.50
2023-02-18T05:52:37.355Z,8.50
2023-02-18T05:55:07.694Z,8.50
2023-02-18T05:57:35.923Z,8.60
2023-02-18T06:00:04.620Z,8.60
2023-02-18T06:02:33.003Z,8.70
2023-02-18T06:05:01.500Z,8.70
2023-02-18T06:07:30.106Z,8.70
2023-02-18T06:09:58.923Z,8.80
2023-02-18T06:12:28.593Z,8.80
2023-02-18T06:14:57.156Z,8.70
2023-02-18T06:17:25.339Z,8.70
2023-02-18T06:19:53.844Z,8.60
2023-02-18T06:22:22.469Z,8.60
2023-02-18T06:24:50.654Z,8.50
2023-02-18T06:27:18.859Z,8.50
2023-02-18T06:29:48.435Z,8.50
2023-02-18T06:32:16.724Z,8.50
2023-02-18T06:34:45.593Z,8.40
2023-02-18T06:37:13.763Z,8.40
2023-02-18T06:39:42.381Z,8.40
2023-02-18T06:42:10.621Z,8.40
2023-02-18T06:44:39.197Z,8.40
2023-02-18T06:47:08.804Z,8.40
2023-02-18T06:49:38.960Z,8.40
2023-02-18T06:52:07.588Z,8.40
2023-02-18T06:54:36.201Z,8.40
2023-02-18T06:57:04.501Z,8.40
2023-02-18T06:59:33.054Z,8.50
2023-02-18T07:02:01.199Z,8.50
2023-02-18T07:04:30.827Z,8.50
2023-02-18T07:06:59.315Z,8.50
2023-02-18T07:09:27.588Z,8.50
2023-02-18T07:11:55.800Z,8.60
2023-02-18T07:14:24.898Z,8.60
2023-02-18T07:16:53.436Z,8.60
2023-02-18T07:19:21.620Z,8.60
2023-02-18T07:21:51.917Z,8.60
2023-02-18T07:24:20.098Z,8.60
2023-02-18T07:26:48.287Z,8.60
2023-02-18T07:29:16.704Z,8.60
2023-02-18T07:31:45.413Z,8.70
2023-02-18T07:34:13.671Z,8.70
2023-02-18T07:36:42.426Z,8.70
2023-02-18T07:39:12.424Z,8.70
2023-02-18T07:41:41.048Z,8.70
2023-02-18T07:44:16.673Z,8.70
2023-02-18T07:46:47.285Z,8.70
2023-02-18T07:49:17.230Z,8.80
2023-02-18T07:51:48.515Z,8.80
2023-02-18T07:54:18.559Z,8.90
2023-02-18T07:56:47.441Z,8.90
2023-02-18T07:59:16.140Z,9.00
2023-02-18T08:01:45.204Z,9.00
2023-02-18T08:04:15.364Z,9.00
2023-02-18T08:06:46.757Z,9.10
2023-02-18T08:09:15.704Z,9.10
2023-02-18T08:11:45.624Z,9.20
2023-02-18T08:14:14.202Z,9.20
2023-02-18T08:16:42.490Z,9.30
2023-02-18T08:19:10.717Z,9.40
2023-02-18T08:21:38.973Z,9.50
2023-02-18T08:24:08.303Z,9.60
2023-02-18T08:26:36.616Z,9.60
2023-02-18T08:29:06.568Z,9.70
2023-02-18T08:31:35.154Z,9.80
2023-02-18T08:34:04.764Z,9.90
2023-02-18T08:36:33.022Z,10.00
2023-02-18T08:39:01.640Z,10.00
2023-02-18T08:41:29.914Z,10.10
2023-02-18T08:43:58.540Z,10.10
2023-02-18T08:46:35.305Z,10.10
2023-02-18T08:49:05.417Z,10.10
2023-02-18T08:51:33.708Z,10.10
2023-02-18T08:54:02.404Z,10.10
2023-02-18T08:56:31.711Z,10.10
2023-02-18T08:59:00.552Z,10.10
2023-02-18T09:01:30.191Z,10.20
2023-02-18T09:03:58.520Z,10.20
2023-02-18T09:06:26.897Z,10.30
2023-02-18T09:08:55.237Z,10.30
2023-02-18T09:11:23.557Z,10.30
2023-02-18T09:13:51.733Z,10.20
2023-02-18T09:16:20.739Z,10.20
2023-02-18T09:18:50.550Z,10.10
2023-02-18T09:21:20.777Z,10.10
2023-02-18T09:23:49.309Z,10.10
2023-02-18T09:26:21.305Z,10.10
2023-02-18T09:28:50.333Z,10.20
2023-02-18T09:31:20.512Z,10.10
2023-02-18T09:33:52.713Z,10.20
2023-02-18T09:36:21.563Z,10.30
2023-02-18T09:38:50.143Z,10.30
2023-02-18T09:41:31.233Z,10.40
2023-02-18T09:44:03.037Z,10.40
2023-02-18T09:46:35.570Z,10.50
2023-02-18T09:49:15.745Z,10.60
2023-02-18T09:51:47.764Z,10.70
2023-02-18T09:54:21.930Z,10.80
2023-02-18T09:56:51.236Z,10.90
2023-02-18T09:59:22.173Z,11.10
2023-02-18T10:01:53.477Z,11.20
2023-02-18T10:04:26.068Z,11.30
2023-02-18T10:06:55.702Z,11.30
2023-02-18T10:09:26.814Z,11.50
2023-02-18T10:11:59.016Z,11.60
2023-02-18T10:14:27.667Z,11.60
2023-02-18T10:16:56.168Z,11.70
2023-02-18T10:19:31.378Z,11.70
2023-02-18T10:22:02.110Z,11.90
2023-02-18T10:24:34.032Z,12.10
2023-02-18T10:27:05.288Z,12.20
2023-02-18T10:29:34.006Z,12.40
2023-02-18T10:32:08.857Z,12.60
2023-02-18T10:34:49.765Z,12.60
2023-02-18T10:37:44.801Z,12.50
2023-02-18T10:40:20.181Z,12.50
2023-02-18T10:42:55.531Z,12.40
2023-02-18T10:45:34.434Z,12.40
2023-02-18T10:48:15.816Z,12.40
2023-02-18T10:50:47.072Z,12.30
2023-02-18T10:53:20.158Z,12.40
2023-02-18T10:55:50.384Z,12.40
2023-02-18T10:58:32.764Z,12.40
2023-02-18T11:01:05.018Z,12.40
2023-02-18T11:03:45.086Z,12.30
2023-02-18T11:06:26.177Z,12.30
2023-02-18T11:08:56.662Z,12.30
2023-02-18T11:11:28.256Z,12.30
2023-02-18T11:13:58.819Z,12.30
2023-02-18T11:16:39.284Z,12.30
2023-02-18T11:19:37.300Z,12.30
2023-02-18T11:22:16.918Z,12.30
2023-02-18T11:24:48.827Z,12.30
2023-02-18T11:27:24.854Z,12.20
2023-02-18T11:29:56.823Z,12.30
2023-02-18T11:32:28.919Z,12.30
2023-02-18T11:34:57.744Z,12.30
2023-02-18T11:37:27.548Z,12.30
2023-02-18T11:39:57.587Z,12.30
2023-02-18T11:42:28.235Z,12.20
2023-02-18T11:44:59.428Z,12.20
2023-02-18T11:47:31.764Z,12.20
2023-02-18T11:50:18.712Z,12.10
2023-02-18T11:52:50.308Z,12.10
2023-02-18T11:55:21.427Z,12.10
2023-02-18T11:57:56.667Z,11.90
2023-02-18T12:00:34.496Z,11.80
2023-02-18T12:03:09.075Z,11.70
2023-02-18T12:05:39.061Z,11.60
2023-02-18T12:08:15.618Z,11.60
2023-02-18T12:10:52.102Z,11.70
2023-02-18T12:13:27.180Z,11.80
2023-02-18T12:16:05.407Z,11.90
2023-02-18T12:19:11.225Z,12.00
2023-02-18T12:21:50.775Z,12.20
2023-02-18T12:24:35.175Z,12.30
2023-02-18T12:27:13.237Z,12.40
2023-02-18T12:30:02.668Z,12.40
2023-02-18T12:32:43.732Z,12.40
2023-02-18T12:35:30.671Z,12.40
2023-02-18T12:38:12.449Z,12.50
2023-02-18T12:41:15.665Z,12.50
2023-02-18T12:43:54.447Z,12.50
2023-02-18T12:46:34.328Z,12.40
2023-02-18T12:49:15.884Z,12.40
2023-02-18T12:51:56.687Z,12.40
2023-02-18T12:54:41.692Z,12.20
2023-02-18T12:57:31.973Z,12.00
2023-02-18T13:00:32.784Z,12.10
2023-02-18T13:03:47.240Z,12.20
2023-02-18T13:06:29.375Z,12.30
2023-02-18T13:09:09.373Z,12.40
2023-02-18T13:11:48.448Z,12.40
2023-02-18T13:14:23.543Z,12.40
2023-02-18T13:16:56.487Z,12.40
2023-02-18T13:19:28.450Z,12.30
2023-02-18T13:22:02.763Z,12.30
2023-02-18T13:24:35.344Z,12.30
2023-02-18T13:27:11.998Z,12.30
2023-02-18T13:29:49.629Z,12.30
2023-02-18T13:32:25.916Z,12.30
2023-02-18T13:35:00.119Z,12.30
2023-02-18T13:37:36.755Z,12.30
2023-02-18T13:40:05.885Z,12.30
2023-02-18T13:42:38.932Z,12.40
2023-02-18T13:45:28.336Z,12.50
2023-02-18T13:47:57.611Z,12.50
2023-02-18T13:50:30.482Z,12.50
2023-02-18T13:53:21.996Z,12.50
2023-02-18T13:56:01.442Z,12.60
2023-02-18T13:58:37.772Z,12.50
2023-02-18T14:01:14.790Z,12.50
2023-02-18T14:03:56.124Z,12.50
2023-02-18T14:06:27.058Z,12.50
2023-02-18T14:09:23.344Z,12.50
2023-02-18T14:11:57.808Z,12.40
2023-02-18T14:14:39.650Z,12.30
2023-02-18T14:17:33.750Z,12.30
2023-02-18T14:20:32.603Z,12.20
2023-02-18T14:23:01.632Z,12.10
2023-02-18T14:25:38.340Z,12.10
2023-02-18T14:28:44.877Z,12.10
2023-02-18T14:31:34.584Z,12.20
2023-02-18T14:34:52.943Z,12.20
2023-02-18T14:37:48.062Z,12.20
2023-02-18T14:40:37.169Z,12.30
2023-02-18T14:43:13.469Z,12.70
2023-02-18T14:46:05.192Z,13.00
2023-02-18T14:49:10.236Z,13.30
2023-02-18T14:51:41.806Z,13.20
2023-02-18T14:54:15.502Z,13.30
2023-02-18T14:56:54.131Z,13.70
2023-02-18T14:59:25.159Z,13.60
2023-02-18T15:01:55.886Z,13.40
2023-02-18T15:04:26.391Z,13.00
2023-02-18T15:07:05.418Z,12.70
2023-02-18T15:09:33.961Z,12.40
2023-02-18T15:12:05.692Z,12.20
2023-02-18T15:14:37.843Z,12.10
2023-02-18T15:17:08.398Z,12.00
2023-02-18T15:19:40.612Z,12.00
2023-02-18T15:22:18.743Z,11.90
2023-02-18T15:24:47.469Z,11.80
2023-02-18T15:27:17.972Z,11.70
2023-02-18T15:29:50.313Z,11.70
2023-02-18T15:32:21.416Z,11.60
2023-02-18T15:34:52.077Z,11.60
2023-02-18T15:37:22.385Z,11.50
2023-02-18T15:39:51.023Z,11.50
2023-02-18T15:42:27.129Z,11.50
2023-02-18T15:44:58.607Z,11.40
2023-02-18T15:47:27.476Z,11.30
2023-02-18T15:49:59.138Z,11.30
2023-02-18T15:52:32.006Z,11.20
2023-02-18T15:55:04.640Z,11.20
2023-02-18T15:57:35.596Z,11.20
2023-02-18T16:00:13.880Z,11.10
2023-02-18T16:02:54.140Z,11.10
2023-02-18T16:05:27.236Z,11.10
2023-02-18T16:08:00.993Z,11.10
2023-02-18T16:10:50.332Z,11.10
2023-02-18T16:13:19.508Z,11.10
2023-02-18T16:15:50.057Z,11.10
2023-02-18T16:18:31.981Z,11.10
2023-02-18T16:21:03.224Z,11.00
2023-02-18T16:23:43.808Z,11.00
2023-02-18T16:26:24.325Z,11.00
2023-02-18T16:28:54.421Z,10.90
2023-02-18T16:31:23.260Z,10.90
2023-02-18T16:33:52.148Z,10.80
2023-02-18T16:36:22.684Z,10.80
2023-02-18T16:38:52.728Z,10.80
2023-02-18T16:41:20.994Z,10.80
2023-02-18T16:43:50.811Z,10.80
2023-02-18T16:46:23.228Z,10.80
2023-02-18T16:48:55.249Z,10.80
2023-02-18T16:51:25.917Z,10.80
2023-02-18T16:53:55.776Z,10.80
2023-02-18T16:56:25.697Z,10.80
2023-02-18T16:58:54.485Z,10.80
2023-02-18T17:01:26.810Z,10.70
2023-02-18T17:03:55.913Z,10.70
2023-02-18T17:06:24.376Z,10.80
2023-02-18T17:08:53.225Z,10.70
2023-02-18T17:11:25.898Z,10.70
2023-02-18T17:13:55.160Z,10.70
2023-02-18T17:16:23.889Z,10.70
2023-02-18T17:18:52.624Z,10.60
2023-02-18T17:21:23.072Z,10.70
2023-02-18T17:23:53.406Z,10.60
2023-02-18T17:26:25.848Z,10.70
2023-02-18T17:28:55.274Z,10.60
2023-02-18T17:31:27.530Z,10.60
2023-02-18T17:33:57.413Z,10.60
2023-02-18T17:36:25.963Z,10.60
2023-02-18T17:38:54.836Z,10.60
2023-02-18T17:41:24.442Z,10.50
2023-02-18T17:43:53.132Z,10.50
2023-02-18T17:46:22.156Z,10.60
2023-02-18T17:48:51.019Z,10.50
2023-02-18T17:51:24.702Z,10.60
2023-02-18T17:53:53.831Z,10.50
2023-02-18T17:56:22.420Z,10.40
2023-02-18T17:58:52.361Z,10.40
2023-02-18T18:01:21.239Z,10.40
2023-02-18T18:03:50.252Z,10.40
2023-02-18T18:06:21.226Z,10.30
2023-02-18T18:08:50.549Z,10.30
2023-02-18T18:11:21.449Z,10.30
2023-02-18T18:13:52.868Z,10.30
2023-02-18T18:16:21.563Z,10.30
2023-02-18T18:18:51.722Z,10.30
2023-02-18T18:21:24.030Z,10.30
2023-02-18T18:23:52.795Z,10.30
2023-02-18T18:26:20.998Z,10.20
2023-02-18T18:28:49.350Z,10.20
2023-02-18T18:31:20.911Z,10.20
2023-02-18T18:33:53.127Z,10.20
2023-02-18T18:36:24.165Z,10.20
2023-02-18T18:38:53.452Z,10.20
2023-02-18T18:41:23.579Z,10.20
2023-02-18T18:43:52.135Z,10.20
2023-02-18T18:46:24.991Z,10.20
2023-02-18T18:49:03.675Z,10.10
2023-02-18T18:51:33.735Z,9.90
2023-02-18T18:54:01.989Z,9.80
2023-02-18T18:56:30.744Z,9.70
2023-02-18T18:58:59.193Z,9.60
2023-02-18T19:01:29.279Z,9.60
2023-02-18T19:03:58.005Z,9.50
2023-02-18T19:06:26.696Z,9.40
2023-02-18T19:08:54.887Z,9.40
2023-02-18T19:11:23.122Z,9.40
2023-02-18T19:13:51.413Z,9.40
2023-02-18T19:16:22.688Z,9.40
2023-02-18T19:18:52.981Z,9.40
2023-02-18T19:21:21.566Z,9.40
2023-02-18T19:23:50.119Z,9.40
2023-02-18T19:26:18.384Z,9.50
2023-02-18T19:28:46.984Z,9.50
2023-02-18T19:31:16.202Z,9.40
2023-02-18T19:33:46.894Z,9.40
2023-02-18T19:36:16.879Z,9.40
2023-02-18T19:38:46.638Z,9.30
2023-02-18T19:41:16.926Z,9.30
2023-02-18T19:43:46.644Z,9.30
2023-02-18T19:46:17.501Z,9.40
2023-02-18T19:48:49.357Z,9.40
2023-02-18T19:51:19.609Z,9.40
2023-02-18T19:53:47.924Z,9.40
2023-02-18T19:56:16.332Z,9.40
2023-02-18T19:58:44.675Z,9.30
2023-02-18T20:01:14.060Z,9.20
2023-02-18T20:03:42.897Z,9.20
2023-02-18T20:06:16.479Z,9.20
2023-02-18T20:08:46.443Z,9.10
2023-02-18T20:11:15.039Z,9.20
2023-02-18T20:13:43.221Z,9.20
2023-02-18T20:16:12.789Z,9.30
2023-02-18T20:18:41.207Z,9.30
2023-02-18T20:21:12.599Z,9.40
2023-02-18T20:23:41.015Z,9.40
2023-02-18T20:26:12.099Z,9.50
2023-02-18T20:28:40.660Z,9.50
2023-02-18T20:31:11.406Z,9.60
2023-02-18T20:33:40.048Z,9.60
2023-02-18T20:36:08.727Z,9.60
2023-02-18T20:38:38.460Z,9.60
2023-02-18T20:41:07.814Z,9.60
2023-02-18T20:43:37.585Z,9.60
2023-02-18T20:46:08.470Z,9.60
2023-02-18T20:48:37.861Z,9.60
2023-02-18T20:51:06.862Z,9.60
2023-02-18T20:53:36.664Z,9.60
2023-02-18T20:56:05.928Z,9.60
2023-02-18T20:58:34.942Z,9.50
2023-02-18T21:01:06.205Z,9.50
2023-02-18T21:03:35.213Z,9.40
2023-02-18T21:06:06.488Z,9.40
2023-02-18T21:08:38.672Z,9.40
2023-02-18T21:11:10.856Z,9.40
2023-02-18T21:13:40.523Z,9.40
2023-02-18T21:16:11.012Z,9.40
2023-02-18T21:18:39.738Z,9.40
2023-02-18T21:21:10.108Z,9.30
2023-02-18T21:23:39.559Z,9.40
2023-02-18T21:26:09.979Z,9.30
2023-02-18T21:28:39.582Z,9.30
2023-02-18T21:31:18.091Z,9.30
2023-02-18T21:33:46.540Z,9.30
2023-02-18T21:36:15.339Z,9.30
2023-02-18T21:38:44.820Z,9.30
2023-02-18T21:41:13.763Z,9.30
2023-02-18T21:43:45.984Z,9.20
2023-02-18T21:46:21.374Z,9.20
2023-02-18T21:49:09.643Z,9.20
2023-02-18T21:52:00.512Z,9.20
2023-02-18T21:54:31.588Z,9.20
2023-02-18T21:57:01.239Z,9.20
2023-02-18T21:59:30.947Z,9.20
2023-02-18T22:02:01.054Z,9.30
2023-02-18T22:04:30.747Z,9.30
2023-02-18T22:07:00.110Z,9.30
2023-02-18T22:09:28.353Z,9.30
2023-02-18T22:11:56.993Z,9.30
2023-02-18T22:14:25.589Z,9.30
2023-02-18T22:16:54.255Z,9.30
2023-02-18T22:19:24.272Z,9.30
2023-02-18T22:21:52.605Z,9.30
2023-02-18T22:24:21.302Z,9.30
2023-02-18T22:26:50.474Z,9.20
2023-02-18T22:29:20.771Z,9.20
2023-02-18T22:31:53.413Z,9.10
2023-02-18T22:34:24.195Z,9.10
2023-02-18T22:36:52.553Z,9.00
2023-02-18T22:39:20.845Z,9.00
2023-02-18T22:41:49.125Z,9.00
2023-02-18T22:44:19.042Z,9.10
2023-02-18T22:46:47.390Z,9.10
2023-02-18T22:49:15.856Z,9.10
2023-02-18T22:51:46.180Z,9.20
2023-02-18T22:54:16.543Z,9.20
2023-02-18T22:56:45.711Z,9.20
2023-02-18T22:59:16.003Z,9.30
2023-02-18T23:01:49.340Z,9.30
2023-02-18T23:04:20.398Z,9.30
2023-02-18T23:06:51.368Z,9.30
2023-02-18T23:09:22.730Z,9.40
2023-02-18T23:11:53.041Z,9.40
2023-02-18T23:14:22.497Z,9.40
2023-02-18T23:17:10.593Z,9.40
2023-02-18T23:19:41.219Z,9.40
2023-02-18T23:22:12.049Z,9.40
2023-02-18T23:24:42.409Z,9.40
2023-02-18T23:27:12.021Z,9.40
2023-02-18T23:29:40.776Z,9.40
2023-02-18T23:32:09.944Z,9.40
2023-02-18T23:34:38.865Z,9.40
2023-02-18T23:37:07.483Z,9.30
2023-02-18T23:39:37.535Z,9.30
2023-02-18T23:42:05.868Z,9.30
2023-02-18T23:44:34.402Z,9.30
2023-02-18T23:47:02.825Z,9.30
2023-02-18T23:49:31.154Z,9.30
2023-02-18T23:51:59.403Z,9.30
2023-02-18T23:54:27.696Z,9.30
2023-02-18T23:56:57.335Z,9.30
2023-02-18T23:59:25.576Z,9.40
